Time;durP1;ratioP1;P1;durP2;ratioP2;P2;SDS_P1;SDS_P2;PMS_P1;PMS_P2;Temp;Humidity;BMP_temperature;BMP_pressure;BME280_temperature;BME280_humidity;BME280_pressure;Samples;Min_cycle;Max_cycle;Signal;HPM_P1;HPM_P2
2022/12/11 00:01:25;;;;;;;9.00;6.55;;;;;;;;;;4927280;29;20055;-39
2022/12/11 00:03:51;;;;;;;10.50;6.72;;;;;;;;;;4935121;28;20125;-38
2022/12/11 00:06:19;;;;;;;7.60;6.82;;;;;;;;;;4931442;29;20047;-38
2022/12/11 00:08:45;;;;;;;10.77;6.80;;;;;;;;;;4929559;28;20078;-38
2022/12/11 00:11:14;;;;;;;8.68;6.43;;;;;;;;;;4929793;29;20067;-39
2022/12/11 00:13:39;;;;;;;9.70;7.32;;;;;;;;;;4932879;28;20032;-38
2022/12/11 00:16:05;;;;;;;8.82;6.10;;;;;;;;;;4933215;29;20042;-38
2022/12/11 00:18:30;;;;;;;10.90;7.53;;;;;;;;;;4933762;29;20409;-37
2022/12/11 00:21:00;;;;;;;10.20;6.43;;;;;;;;;;4932923;29;20035;-38
2022/12/11 00:23:26;;;;;;;8.60;6.82;;;;;;;;;;4928144;28;20072;-41
2022/12/11 00:25:51;;;;;;;10.18;7.85;;;;;;;;;;4935991;29;20032;-37
2022/12/11 00:28:17;;;;;;;10.35;7.13;;;;;;;;;;4934188;28;20050;-38
2022/12/11 00:30:44;;;;;;;11.02;6.18;;;;;;;;;;4929827;29;20048;-38
2022/12/11 00:33:10;;;;;;;8.07;7.10;;;;;;;;;;4930170;28;20058;-37
2022/12/11 00:35:43;;;;;;;9.73;7.00;;;;;;;;;;4929452;29;20055;-38
2022/12/11 00:38:17;;;;;;;8.23;6.60;;;;;;;;;;4928643;29;20063;-38
2022/12/11 00:40:43;;;;;;;9.57;6.85;;;;;;;;;;4929467;29;20031;-38
2022/12/11 00:43:09;;;;;;;7.82;6.43;;;;;;;;;;4931777;28;20156;-38
2022/12/11 00:45:45;;;;;;;11.13;6.72;;;;;;;;;;4929936;29;20027;-38
2022/12/11 00:48:11;;;;;;;7.95;6.80;;;;;;;;;;4926811;29;20040;-38
2022/12/11 00:50:38;;;;;;;9.05;6.40;;;;;;;;;;4930882;29;20067;-38
2022/12/11 00:53:05;;;;;;;7.60;6.07;;;;;;;;;;4931806;28;20051;-39
2022/12/11 00:55:31;;;;;;;12.00;6.68;;;;;;;;;;4931003;29;20393;-38
2022/12/11 00:57:57;;;;;;;8.80;5.97;;;;;;;;;;4930352;29;20035;-38
2022/12/11 01:00:23;;;;;;;10.27;6.70;;;;;;;;;;4927580;29;20028;-38
2022/12/11 01:02:49;;;;;;;9.68;7.03;;;;;;;;;;4929901;29;20074;-38
2022/12/11 01:05:15;;;;;;;10.13;6.78;;;;;;;;;;4930420;29;20035;-38
2022/12/11 01:07:41;;;;;;;8.25;6.25;;;;;;;;;;4928841;28;20169;-38
2022/12/11 01:10:24;;;;;;;10.00;5.95;;;;;;;;;;4930133;29;20027;-38
2022/12/11 01:12:59;;;;;;;8.30;6.43;;;;;;;;;;4932756;28;20040;-38
2022/12/11 01:15:27;;;;;;;8.23;5.78;;;;;;;;;;4931086;29;20042;-38
2022/12/11 01:17:53;;;;;;;10.23;6.10;;;;;;;;;;4928098;28;20067;-38
2022/12/11 01:20:20;;;;;;;8.45;6.15;;;;;;;;;;4927568;29;20096;-38
2022/12/11 01:22:46;;;;;;;6.78;5.88;;;;;;;;;;4930070;28;20039;-38
2022/12/11 01:25:12;;;;;;;6.55;5.82;;;;;;;;;;4931580;29;20058;-38
2022/12/11 01:27:38;;;;;;;8.73;5.93;;;;;;;;;;4928655;29;20067;-38
2022/12/11 01:30:06;;;;;;;8.88;6.65;;;;;;;;;;4931171;28;20099;-38
2022/12/11 01:32:32;;;;;;;7.93;6.38;;;;;;;;;;4927958;29;20067;-38
2022/12/11 01:34:58;;;;;;;8.73;6.82;;;;;;;;;;4928665;28;20426;-38
2022/12/11 01:37:23;;;;;;;8.45;6.60;;;;;;;;;;4929159;29;20038;-38
2022/12/11 01:39:48;;;;;;;11.40;6.18;;;;;;;;;;4932836;28;20056;-37
2022/12/11 01:42:18;;;;;;;8.57;6.47;;;;;;;;;;4930038;29;20047;-38
2022/12/11 01:44:44;;;;;;;8.40;6.35;;;;;;;;;;4930428;29;20051;-38
2022/12/11 01:47:09;;;;;;;8.25;6.40;;;;;;;;;;4931026;29;20043;-40
2022/12/11 01:49:35;;;;;;;9.13;5.82;;;;;;;;;;4927239;28;20056;-38
2022/12/11 01:52:07;;;;;;;8.93;6.20;;;;;;;;;;4930640;29;20031;-38
2022/12/11 01:54:33;;;;;;;10.30;6.43;;;;;;;;;;4928303;28;20053;-39
2022/12/11 01:57:03;;;;;;;9.43;5.30;;;;;;;;;;4929207;29;20474;-38
2022/12/11 01:59:30;;;;;;;7.82;6.18;;;;;;;;;;4928032;29;20847;-38
2022/12/11 02:02:20;;;;;;;10.35;6.65;;;;;;;;;;4925938;29;20058;-38
2022/12/11 02:04:47;;;;;;;10.15;7.03;;;;;;;;;;4929782;28;20048;-38
2022/12/11 02:07:12;;;;;;;9.15;7.00;;;;;;;;;;4930641;29;20040;-38
2022/12/11 02:09:41;;;;;;;12.40;7.05;;;;;;;;;;4926663;29;20052;-38
2022/12/11 02:12:18;;;;;;;9.55;6.75;;;;;;;;;;4931135;29;20042;-38
2022/12/11 02:15:09;;;;;;;9.43;7.20;;;;;;;;;;4929812;29;20134;-38
2022/12/11 02:17:43;;;;;;;9.45;6.47;;;;;;;;;;4927193;29;20082;-38
2022/12/11 02:20:33;;;;;;;8.13;6.00;;;;;;;;;;4923693;29;20048;-39
2022/12/11 02:23:14;;;;;;;9.95;5.78;;;;;;;;;;4924960;28;20055;-38
2022/12/11 02:26:11;;;;;;;12.15;6.03;;;;;;;;;;4931881;29;20035;-38
2022/12/11 02:28:52;;;;;;;7.63;6.47;;;;;;;;;;4925669;28;20119;-38
2022/12/11 02:31:33;;;;;;;8.05;6.15;;;;;;;;;;4929101;29;20039;-38
2022/12/11 02:34:20;;;;;;;11.68;5.80;;;;;;;;;;4928113;28;20043;-38
2022/12/11 02:36:55;;;;;;;7.45;5.95;;;;;;;;;;4927727;29;20032;-38
2022/12/11 02:39:24;;;;;;;9.20;6.65;;;;;;;;;;4931609;28;20048;-38
2022/12/11 02:41:50;;;;;;;7.95;6.63;;;;;;;;;;4930273;29;20051;-38
2022/12/11 02:44:20;;;;;;;9.93;6.22;;;;;;;;;;4932032;28;20039;-38
2022/12/11 02:46:45;;;;;;;9.60;6.07;;;;;;;;;;4924368;29;20054;-38
2022/12/11 02:49:13;;;;;;;9.18;6.28;;;;;;;;;;4929403;28;20052;-38
2022/12/11 02:51:41;;;;;;;9.30;6.50;;;;;;;;;;4924000;29;20474;-38
2022/12/11 02:54:11;;;;;;;10.07;6.72;;;;;;;;;;4926153;29;20046;-38
2022/12/11 02:56:45;;;;;;;7.50;6.70;;;;;;;;;;4928789;29;20059;-39
2022/12/11 02:59:24;;;;;;;9.75;6.63;;;;;;;;;;4928884;28;20071;-37
2022/12/11 03:01:50;;;;;;;9.38;6.50;;;;;;;;;;4923334;29;20036;-38
2022/12/11 03:04:15;;;;;;;8.93;6.85;;;;;;;;;;4929170;28;20268;-38
2022/12/11 03:06:45;;;;;;;8.43;5.80;;;;;;;;;;4928933;29;20032;-38
2022/12/11 03:09:11;;;;;;;13.70;6.50;;;;;;;;;;4929196;28;20569;-38
2022/12/11 03:11:36;;;;;;;6.90;5.60;;;;;;;;;;4925850;29;20182;-38
2022/12/11 03:14:02;;;;;;;7.68;6.35;;;;;;;;;;4930647;28;20036;-38
2022/12/11 03:16:36;;;;;;;9.40;6.45;;;;;;;;;;4929546;29;20106;-38
2022/12/11 03:19:28;;;;;;;7.40;6.55;;;;;;;;;;4922300;28;20052;-38
2022/12/11 03:22:16;;;;;;;7.72;6.13;;;;;;;;;;4926768;29;20099;-38
2022/12/11 03:24:42;;;;;;;8.48;6.72;;;;;;;;;;4927028;28;20044;-38
2022/12/11 03:27:22;;;;;;;6.43;5.72;;;;;;;;;;4929225;29;20751;-38
2022/12/11 03:29:56;;;;;;;8.85;6.25;;;;;;;;;;4928078;29;20048;-37
2022/12/11 03:32:28;;;;;;;8.07;6.25;;;;;;;;;;4928099;29;20023;-38
2022/12/11 03:34:59;;;;;;;9.00;5.93;;;;;;;;;;4929040;29;20043;-38
2022/12/11 03:37:30;;;;;;;11.20;6.78;;;;;;;;;;4927652;29;20070;-38
2022/12/11 03:40:00;;;;;;;7.90;5.80;;;;;;;;;;4923586;29;20095;-38
2022/12/11 03:42:26;;;;;;;6.70;5.93;;;;;;;;;;4927625;29;20034;-38
2022/12/11 03:44:55;;;;;;;8.15;6.47;;;;;;;;;;4925989;28;20052;-37
2022/12/11 03:47:24;;;;;;;10.10;7.10;;;;;;;;;;4927830;29;20446;-38
2022/12/11 03:49:51;;;;;;;8.73;5.85;;;;;;;;;;4927252;28;20051;-38
2022/12/11 03:52:17;;;;;;;14.82;6.97;;;;;;;;;;4927186;29;20055;-37
2022/12/11 03:54:47;;;;;;;9.25;6.65;;;;;;;;;;4931205;28;20421;-38
2022/12/11 03:57:16;;;;;;;12.35;7.47;;;;;;;;;;4928450;29;20107;-38
2022/12/11 03:59:43;;;;;;;9.55;7.03;;;;;;;;;;4928628;28;20079;-37
2022/12/11 04:02:09;;;;;;;12.57;6.78;;;;;;;;;;4925579;29;20059;-38
2022/12/11 04:04:36;;;;;;;10.60;6.78;;;;;;;;;;4925296;28;20070;-38
2022/12/11 04:07:01;;;;;;;10.20;6.47;;;;;;;;;;4926884;29;20529;-38
2022/12/11 04:09:26;;;;;;;8.70;6.78;;;;;;;;;;4926016;29;20051;-38
2022/12/11 04:11:52;;;;;;;8.60;6.40;;;;;;;;;;4928589;29;20475;-38
2022/12/11 04:17:01;;;;;;;7.85;6.60;;;;;;;;;;4929391;29;20082;-38
2022/12/11 04:24:57;;;;;;;8.18;6.63;;;;;;;;;;4847697;29;20505;-38
2022/12/11 04:30:10;;;;;;;10.45;7.18;;;;;;;;;;4867019;29;20074;-38
2022/12/11 04:32:35;;;;;;;9.20;6.93;;;;;;;;;;4866005;29;20033;-38
2022/12/11 04:35:01;;;;;;;9.48;7.10;;;;;;;;;;4867329;29;20189;-38
2022/12/11 04:37:27;;;;;;;11.38;7.72;;;;;;;;;;4868316;29;20037;-38
2022/12/11 04:39:52;;;;;;;10.85;7.60;;;;;;;;;;4868112;29;20073;-38
2022/12/11 04:42:18;;;;;;;9.95;7.10;;;;;;;;;;4866409;29;20081;-38
2022/12/11 04:44:43;;;;;;;11.13;7.20;;;;;;;;;;4864971;29;20038;-38
2022/12/11 04:47:09;;;;;;;9.18;7.28;;;;;;;;;;4871461;29;20033;-39
2022/12/11 04:49:34;;;;;;;11.85;7.97;;;;;;;;;;4873072;29;20082;-38
2022/12/11 04:51:59;;;;;;;8.70;6.53;;;;;;;;;;4868984;29;20040;-38
2022/12/11 04:54:25;;;;;;;7.75;6.63;;;;;;;;;;4868461;29;20037;-38
2022/12/11 04:56:50;;;;;;;11.35;6.88;;;;;;;;;;4874631;29;20216;-38
2022/12/11 04:59:15;;;;;;;11.65;7.72;;;;;;;;;;4872052;29;20049;-41
2022/12/11 05:01:41;;;;;;;7.28;6.22;;;;;;;;;;4890454;29;20450;-38
2022/12/11 05:04:06;;;;;;;10.27;7.30;;;;;;;;;;4928486;28;20044;-37
2022/12/11 05:06:31;;;;;;;10.05;7.00;;;;;;;;;;4931932;29;20039;-38
2022/12/11 05:08:57;;;;;;;7.93;6.60;;;;;;;;;;4924305;28;20496;-38
2022/12/11 05:11:22;;;;;;;12.27;7.70;;;;;;;;;;4930187;29;20114;-38
2022/12/11 05:13:47;;;;;;;10.30;7.68;;;;;;;;;;4919672;28;20040;-41
2022/12/11 05:16:15;;;;;;;10.32;7.20;;;;;;;;;;4915514;29;20702;-38
2022/12/11 05:18:40;;;;;;;9.73;6.72;;;;;;;;;;4907933;29;20048;-38
2022/12/11 05:21:08;;;;;;;9.68;6.93;;;;;;;;;;4913299;29;20036;-38
2022/12/11 05:23:34;;;;;;;9.30;6.85;;;;;;;;;;4904898;29;20542;-42
2022/12/11 05:26:02;;;;;;;9.77;7.10;;;;;;;;;;4909884;29;20029;-38
2022/12/11 05:28:30;;;;;;;13.75;7.38;;;;;;;;;;4918844;29;20051;-38
2022/12/11 05:31:01;;;;;;;11.40;7.70;;;;;;;;;;4930554;29;20459;-38
2022/12/11 05:33:28;;;;;;;10.45;7.28;;;;;;;;;;4921150;28;20091;-38
2022/12/11 05:35:54;;;;;;;8.32;7.07;;;;;;;;;;4914696;29;20051;-38
2022/12/11 05:38:20;;;;;;;10.90;7.93;;;;;;;;;;4915360;29;20043;-38
2022/12/11 05:41:04;;;;;;;9.02;6.70;;;;;;;;;;4925944;29;20059;-38
2022/12/11 05:43:32;;;;;;;13.43;8.20;;;;;;;;;;4927918;28;20044;-38
2022/12/11 05:46:13;;;;;;;11.57;7.75;;;;;;;;;;4928507;29;20060;-38
2022/12/11 05:48:40;;;;;;;8.65;7.03;;;;;;;;;;4930036;28;20058;-39
2022/12/11 05:51:07;;;;;;;11.63;7.82;;;;;;;;;;4930974;29;20028;-38
2022/12/11 05:53:33;;;;;;;13.50;7.65;;;;;;;;;;4925132;28;20495;-38
2022/12/11 05:56:26;;;;;;;9.73;8.00;;;;;;;;;;4930070;29;20028;-39
2022/12/11 05:58:52;;;;;;;9.68;6.95;;;;;;;;;;4925429;28;20051;-38
2022/12/11 06:01:29;;;;;;;9.30;7.30;;;;;;;;;;4929202;29;20031;-38
2022/12/11 06:03:56;;;;;;;10.27;7.00;;;;;;;;;;4927852;28;20059;-39
2022/12/11 06:06:22;;;;;;;8.88;6.95;;;;;;;;;;4924852;29;20032;-41
2022/12/11 06:08:55;;;;;;;11.15;7.25;;;;;;;;;;4928546;28;20054;-38
2022/12/11 06:11:21;;;;;;;9.38;6.95;;;;;;;;;;4924999;29;20028;-40
2022/12/11 06:13:47;;;;;;;9.63;7.20;;;;;;;;;;4923411;28;20051;-39
2022/12/11 06:16:13;;;;;;;12.50;7.82;;;;;;;;;;4927395;29;20032;-38
2022/12/11 06:18:40;;;;;;;11.13;7.72;;;;;;;;;;4932273;29;20082;-39
2022/12/11 06:21:20;;;;;;;8.57;6.78;;;;;;;;;;4929393;29;20082;-38
2022/12/11 06:23:47;;;;;;;9.85;7.80;;;;;;;;;;4926608;28;20509;-38
2022/12/11 06:26:13;;;;;;;8.55;6.80;;;;;;;;;;4928623;29;20478;-39
2022/12/11 06:28:39;;;;;;;8.25;6.82;;;;;;;;;;4928189;28;20398;-38
2022/12/11 06:31:04;;;;;;;9.30;7.30;;;;;;;;;;4930669;29;20035;-38
2022/12/11 06:33:30;;;;;;;12.25;8.32;;;;;;;;;;4927440;28;20094;-39
2022/12/11 06:35:59;;;;;;;9.68;8.02;;;;;;;;;;4931294;28;20066;-40
2022/12/11 06:38:25;;;;;;;9.75;7.30;;;;;;;;;;4928788;28;20079;-38
2022/12/11 06:40:55;;;;;;;10.38;7.43;;;;;;;;;;4931112;29;20074;-38
2022/12/11 06:43:21;;;;;;;10.02;7.10;;;;;;;;;;4926798;28;20043;-38
2022/12/11 06:45:47;;;;;;;11.15;6.93;;;;;;;;;;4928333;28;20390;-38
2022/12/11 06:48:12;;;;;;;17.08;7.53;;;;;;;;;;4930528;28;20039;-38
2022/12/11 06:50:37;;;;;;;9.30;7.05;;;;;;;;;;4927139;29;20090;-38
2022/12/11 06:53:03;;;;;;;11.77;9.18;;;;;;;;;;4926015;29;20058;-38
2022/12/11 06:55:28;;;;;;;12.40;8.93;;;;;;;;;;4928945;29;20574;-39
2022/12/11 06:57:54;;;;;;;9.90;7.82;;;;;;;;;;4927110;29;20486;-38
2022/12/11 07:00:19;;;;;;;8.73;7.53;;;;;;;;;;4927695;29;20028;-39
2022/12/11 07:02:45;;;;;;;9.35;7.78;;;;;;;;;;4926815;29;20352;-38
2022/12/11 07:05:10;;;;;;;11.40;8.10;;;;;;;;;;4928905;29;20497;-42
2022/12/11 07:07:35;;;;;;;9.60;7.47;;;;;;;;;;4924857;29;20575;-39
2022/12/11 07:10:01;;;;;;;13.45;7.90;;;;;;;;;;4922787;28;20092;-38
2022/12/11 07:12:26;;;;;;;9.95;7.55;;;;;;;;;;4927443;29;20415;-39
2022/12/11 07:14:51;;;;;;;9.20;7.40;;;;;;;;;;4924135;28;20094;-38
2022/12/11 07:17:17;;;;;;;22.45;12.95;;;;;;;;;;4931204;29;20110;-39
2022/12/11 07:19:42;;;;;;;29.45;14.60;;;;;;;;;;4930506;28;20044;-38
2022/12/11 07:22:08;;;;;;;29.48;15.35;;;;;;;;;;4925536;29;20044;-38
2022/12/11 07:24:33;;;;;;;21.80;13.82;;;;;;;;;;4926781;29;20042;-39
2022/12/11 07:26:58;;;;;;;18.90;12.02;;;;;;;;;;4925971;29;20470;-38
2022/12/11 07:29:24;;;;;;;22.02;14.63;;;;;;;;;;4927694;28;20067;-39
2022/12/11 07:31:49;;;;;;;18.20;11.18;;;;;;;;;;4926576;29;20067;-39
2022/12/11 07:34:15;;;;;;;16.88;10.85;;;;;;;;;;4926401;28;20036;-42
2022/12/11 07:36:42;;;;;;;18.15;10.95;;;;;;;;;;4929031;29;20028;-39
2022/12/11 07:39:10;;;;;;;16.83;12.30;;;;;;;;;;4922175;29;20047;-42
2022/12/11 07:41:36;;;;;;;15.63;10.68;;;;;;;;;;4923789;29;20402;-41
2022/12/11 07:44:02;;;;;;;15.77;12.07;;;;;;;;;;4927344;28;20039;-39
2022/12/11 07:46:30;;;;;;;10.73;8.45;;;;;;;;;;4925343;29;20541;-38
2022/12/11 07:48:55;;;;;;;10.25;7.43;;;;;;;;;;4929015;28;20095;-39
2022/12/11 07:51:26;;;;;;;9.07;7.35;;;;;;;;;;4930798;29;20028;-38
2022/12/11 07:53:53;;;;;;;8.88;6.90;;;;;;;;;;4928326;28;20039;-39
2022/12/11 07:56:19;;;;;;;12.38;7.65;;;;;;;;;;4929719;29;20043;-38
2022/12/11 07:58:45;;;;;;;9.02;7.05;;;;;;;;;;4923920;28;20184;-39
2022/12/11 08:01:20;;;;;;;11.27;8.50;;;;;;;;;;4924431;29;20423;-38
2022/12/11 08:03:46;;;;;;;12.60;8.35;;;;;;;;;;4929452;28;20035;-39
2022/12/11 08:06:11;;;;;;;12.88;7.68;;;;;;;;;;4924416;28;20028;-42
2022/12/11 08:08:38;;;;;;;12.23;9.07;;;;;;;;;;4926742;28;20040;-38
2022/12/11 08:11:05;;;;;;;13.57;8.70;;;;;;;;;;4928394;29;20023;-39
2022/12/11 08:13:31;;;;;;;12.85;9.88;;;;;;;;;;4925542;28;20032;-40
2022/12/11 08:15:57;;;;;;;11.65;9.07;;;;;;;;;;4926997;29;20494;-39
2022/12/11 08:18:23;;;;;;;11.95;8.98;;;;;;;;;;4925919;29;20042;-39
2022/12/11 08:20:48;;;;;;;11.23;8.88;;;;;;;;;;4928692;29;20147;-39
2022/12/11 08:23:14;;;;;;;10.88;8.63;;;;;;;;;;4926964;28;20051;-38
2022/12/11 08:25:39;;;;;;;12.13;9.80;;;;;;;;;;4932134;29;20060;-39
2022/12/11 08:28:04;;;;;;;13.27;8.70;;;;;;;;;;4928373;28;20486;-38
2022/12/11 08:30:30;;;;;;;10.13;7.38;;;;;;;;;;4931271;29;20080;-38
2022/12/11 08:32:56;;;;;;;12.45;7.20;;;;;;;;;;4932599;28;20500;-38
2022/12/11 08:35:21;;;;;;;8.75;7.10;;;;;;;;;;4929577;29;20031;-38
2022/12/11 08:37:47;;;;;;;11.05;8.15;;;;;;;;;;4929801;29;20035;-39
2022/12/11 08:40:13;;;;;;;28.02;13.07;;;;;;;;;;4933930;29;20090;-39
2022/12/11 08:42:38;;;;;;;11.00;8.68;;;;;;;;;;4930958;29;20056;-39
2022/12/11 08:45:04;;;;;;;14.90;8.43;;;;;;;;;;4927657;29;20052;-39
2022/12/11 08:47:30;;;;;;;12.48;8.10;;;;;;;;;;4931217;29;20059;-38
2022/12/11 08:49:55;;;;;;;22.63;13.13;;;;;;;;;;4929783;28;20048;-38
2022/12/11 08:52:21;;;;;;;32.65;16.67;;;;;;;;;;4933486;29;20040;-38
2022/12/11 08:54:47;;;;;;;39.05;20.92;;;;;;;;;;4929749;28;20047;-38
2022/12/11 08:57:12;;;;;;;13.35;9.27;;;;;;;;;;4929242;29;20043;-38
2022/12/11 08:59:38;;;;;;;15.70;10.05;;;;;;;;;;4930551;28;20056;-39
2022/12/11 09:02:03;;;;;;;78.25;35.13;;;;;;;;;;4924520;29;20035;-38
2022/12/11 09:04:28;;;;;;;20.38;13.02;;;;;;;;;;4927675;28;20036;-39
2022/12/11 09:06:54;;;;;;;13.32;9.48;;;;;;;;;;4927759;29;20043;-38
2022/12/11 09:09:19;;;;;;;11.65;10.45;;;;;;;;;;4926787;29;20529;-38
2022/12/11 09:11:44;;;;;;;12.18;9.57;;;;;;;;;;4924849;29;20035;-39
2022/12/11 09:14:10;;;;;;;16.90;12.05;;;;;;;;;;4923045;29;20039;-38
2022/12/11 09:16:39;;;;;;;12.98;9.73;;;;;;;;;;4923557;29;20538;-38
2022/12/11 09:19:07;;;;;;;16.67;11.82;;;;;;;;;;4925590;28;20494;-38
2022/12/11 09:21:32;;;;;;;17.23;11.50;;;;;;;;;;4927615;29;20502;-38
2022/12/11 09:23:59;;;;;;;13.98;10.00;;;;;;;;;;4926718;28;20071;-38
2022/12/11 09:26:26;;;;;;;17.10;11.23;;;;;;;;;;4931355;28;20126;-38
2022/12/11 09:28:52;;;;;;;13.50;9.23;;;;;;;;;;4926695;28;20040;-38
2022/12/11 09:31:27;;;;;;;11.40;8.15;;;;;;;;;;4924187;29;20028;-38
2022/12/11 09:33:58;;;;;;;14.45;8.63;;;;;;;;;;4926464;29;20048;-41
2022/12/11 09:36:24;;;;;;;11.40;8.18;;;;;;;;;;4926988;29;20024;-39
2022/12/11 09:38:49;;;;;;;14.85;8.63;;;;;;;;;;4925959;29;20052;-38
2022/12/11 09:41:21;;;;;;;17.30;8.88;;;;;;;;;;4928101;29;20043;-40
2022/12/11 09:44:10;;;;;;;12.15;7.65;;;;;;;;;;4926720;28;20075;-38
2022/12/11 09:46:38;;;;;;;8.73;7.43;;;;;;;;;;4924521;29;20046;-38
2022/12/11 09:49:10;;;;;;;9.55;7.03;;;;;;;;;;4926426;28;20056;-39
2022/12/11 09:51:40;;;;;;;9.20;7.68;;;;;;;;;;4926630;29;20032;-39
2022/12/11 09:54:09;;;;;;;12.23;7.68;;;;;;;;;;4922684;28;20039;-38
2022/12/11 09:56:43;;;;;;;10.90;7.70;;;;;;;;;;4923332;29;20644;-38
2022/12/11 09:59:37;;;;;;;9.38;7.10;;;;;;;;;;4925557;28;20035;-38
2022/12/11 10:02:25;;;;;;;11.13;7.43;;;;;;;;;;4922801;29;20031;-37
2022/12/11 10:04:56;;;;;;;9.02;7.32;;;;;;;;;;4926069;28;20415;-37
2022/12/11 10:07:49;;;;;;;9.60;6.72;;;;;;;;;;4930713;29;20490;-38
2022/12/11 10:10:30;;;;;;;7.57;5.95;;;;;;;;;;4927577;29;20142;-38
2022/12/11 10:13:29;;;;;;;8.43;6.13;;;;;;;;;;4927068;29;20043;-42
2022/12/11 10:16:32;;;;;;;8.77;6.95;;;;;;;;;;4923378;29;20035;-39
2022/12/11 10:18:58;;;;;;;7.03;5.25;;;;;;;;;;4930176;28;20027;-41
2022/12/11 10:21:25;;;;;;;10.30;6.60;;;;;;;;;;4926418;28;20039;-39
2022/12/11 10:23:59;;;;;;;11.65;7.00;;;;;;;;;;4926094;28;20131;-38
2022/12/11 10:26:27;;;;;;;7.93;6.53;;;;;;;;;;4926263;29;20409;-38
2022/12/11 10:28:57;;;;;;;11.63;8.13;;;;;;;;;;4928937;29;20048;-40
2022/12/11 10:31:38;;;;;;;11.25;7.15;;;;;;;;;;4926639;29;20417;-40
2022/12/11 10:34:10;;;;;;;8.95;6.35;;;;;;;;;;4927288;29;20589;-43
2022/12/11 10:36:39;;;;;;;9.60;6.75;;;;;;;;;;4924058;29;20042;-42
2022/12/11 10:39:16;;;;;;;7.35;6.50;;;;;;;;;;4929148;28;20115;-46
2022/12/11 10:41:44;;;;;;;9.43;6.55;;;;;;;;;;4923660;29;20038;-41
2022/12/11 10:44:22;;;;;;;9.68;6.93;;;;;;;;;;4924183;28;20071;-43
2022/12/11 10:47:00;;;;;;;10.13;6.72;;;;;;;;;;4925619;29;20043;-42
2022/12/11 10:49:29;;;;;;;10.65;7.22;;;;;;;;;;4926850;28;20047;-43
2022/12/11 10:51:55;;;;;;;9.80;7.38;;;;;;;;;;4930804;29;20058;-46
2022/12/11 10:54:34;;;;;;;8.40;6.45;;;;;;;;;;4926607;28;20044;-43
2022/12/11 10:57:02;;;;;;;10.55;6.68;;;;;;;;;;4928506;29;20382;-41
2022/12/11 10:59:43;;;;;;;7.40;6.55;;;;;;;;;;4924147;28;20051;-43
2022/12/11 11:02:26;;;;;;;9.63;7.10;;;;;;;;;;4923750;29;20499;-43
2022/12/11 11:04:54;;;;;;;8.95;7.55;;;;;;;;;;4922586;28;20051;-46
2022/12/11 11:07:23;;;;;;;11.07;7.68;;;;;;;;;;4924111;29;20115;-44
2022/12/11 11:09:53;;;;;;;13.80;7.50;;;;;;;;;;4924804;29;21253;-46
2022/12/11 11:12:20;;;;;;;10.65;7.10;;;;;;;;;;4923837;29;20027;-42
2022/12/11 11:14:46;;;;;;;9.48;6.57;;;;;;;;;;4926319;28;20047;-44
2022/12/11 11:17:15;;;;;;;9.30;6.93;;;;;;;;;;4920535;29;20051;-45
2022/12/11 11:19:46;;;;;;;8.57;7.05;;;;;;;;;;4923174;29;20051;-48
2022/12/11 11:22:14;;;;;;;8.85;6.45;;;;;;;;;;4923012;28;20038;-43
2022/12/11 11:24:54;;;;;;;9.23;6.82;;;;;;;;;;4918597;29;20453;-42
2022/12/11 11:27:48;;;;;;;8.63;6.15;;;;;;;;;;4926945;29;20055;-43
2022/12/11 11:30:18;;;;;;;10.55;6.93;;;;;;;;;;4921358;29;20060;-43
2022/12/11 11:32:44;;;;;;;10.15;7.15;;;;;;;;;;4926705;28;20032;-42
2022/12/11 11:35:12;;;;;;;9.63;6.20;;;;;;;;;;4920192;29;20040;-44
2022/12/11 11:37:40;;;;;;;10.65;7.43;;;;;;;;;;4928297;29;20046;-44
2022/12/11 11:40:25;;;;;;;7.80;7.00;;;;;;;;;;4903535;29;20056;-44
2022/12/11 11:43:03;;;;;;;7.82;6.35;;;;;;;;;;4907321;28;20099;-42
2022/12/11 11:45:37;;;;;;;7.65;6.35;;;;;;;;;;4910824;29;20028;-45
2022/12/11 11:48:24;;;;;;;7.93;6.47;;;;;;;;;;4899958;28;20062;-42
2022/12/11 11:50:51;;;;;;;9.07;6.40;;;;;;;;;;4902126;29;20040;-43
2022/12/11 11:53:30;;;;;;;8.10;6.07;;;;;;;;;;4903773;29;20136;-43
2022/12/11 11:56:06;;;;;;;8.52;6.53;;;;;;;;;;4909727;29;20047;-42
2022/12/11 11:59:13;;;;;;;9.13;6.90;;;;;;;;;;4908577;28;20082;-42
2022/12/11 12:01:41;;;;;;;9.73;6.28;;;;;;;;;;4882710;29;20135;-45
2022/12/11 12:04:07;;;;;;;9.45;6.90;;;;;;;;;;4887763;29;20045;-40
2022/12/11 12:06:42;;;;;;;7.85;6.13;;;;;;;;;;4890758;29;20044;-41
2022/12/11 12:09:16;;;;;;;8.60;6.40;;;;;;;;;;4888905;29;20149;-41
2022/12/11 12:11:53;;;;;;;8.68;6.70;;;;;;;;;;4889180;29;20049;-42
2022/12/11 12:14:30;;;;;;;8.93;6.97;;;;;;;;;;4889645;29;20049;-45
2022/12/11 12:17:07;;;;;;;8.75;6.45;;;;;;;;;;4887085;29;20032;-42
2022/12/11 12:19:58;;;;;;;7.85;6.07;;;;;;;;;;4890291;29;20253;-42
2022/12/11 12:22:26;;;;;;;8.13;6.35;;;;;;;;;;4888082;29;20671;-40
2022/12/11 12:25:07;;;;;;;9.07;6.65;;;;;;;;;;4890517;29;20079;-41
2022/12/11 12:27:58;;;;;;;8.05;6.47;;;;;;;;;;4885354;29;20447;-42
2022/12/11 12:30:25;;;;;;;7.03;5.63;;;;;;;;;;4888776;29;20068;-41
2022/12/11 12:33:00;;;;;;;8.85;7.40;;;;;;;;;;4889068;29;20496;-42
2022/12/11 12:35:43;;;;;;;9.10;6.80;;;;;;;;;;4889225;29;20479;-42
2022/12/11 12:38:22;;;;;;;7.20;6.47;;;;;;;;;;4901151;28;20594;-42
2022/12/11 12:41:12;;;;;;;8.48;6.28;;;;;;;;;;4902849;29;20119;-45
2022/12/11 12:43:51;;;;;;;7.25;6.25;;;;;;;;;;4911936;29;20040;-41
2022/12/11 12:46:21;;;;;;;7.40;5.97;;;;;;;;;;4928492;28;20067;-43
2022/12/11 12:48:48;;;;;;;8.30;6.25;;;;;;;;;;4925282;28;20051;-42
2022/12/11 12:51:16;;;;;;;8.35;6.47;;;;;;;;;;4926295;29;20164;-42
2022/12/11 12:53:48;;;;;;;9.82;7.43;;;;;;;;;;4927737;28;20040;-45
2022/12/11 12:56:14;;;;;;;7.68;6.13;;;;;;;;;;4926546;29;20039;-42
2022/12/11 12:58:42;;;;;;;8.00;6.85;;;;;;;;;;4925766;28;20098;-44
2022/12/11 13:01:29;;;;;;;6.40;5.80;;;;;;;;;;4931335;29;20043;-43
2022/12/11 13:04:06;;;;;;;6.30;5.70;;;;;;;;;;4926595;28;20048;-41
2022/12/11 13:06:46;;;;;;;8.90;5.97;;;;;;;;;;4925534;29;20119;-44
2022/12/11 13:09:23;;;;;;;7.80;6.13;;;;;;;;;;4932235;28;20044;-42
2022/12/11 13:11:53;;;;;;;6.78;5.93;;;;;;;;;;4929953;29;20039;-41
2022/12/11 13:14:19;;;;;;;7.78;6.47;;;;;;;;;;4931092;28;20570;-41
2022/12/11 13:16:49;;;;;;;6.93;5.47;;;;;;;;;;4929726;29;20028;-47
2022/12/11 13:19:35;;;;;;;6.53;5.75;;;;;;;;;;4930960;28;20474;-42
2022/12/11 13:22:20;;;;;;;9.88;6.03;;;;;;;;;;4925663;29;20055;-42
2022/12/11 13:25:28;;;;;;;7.38;5.75;;;;;;;;;;4932263;28;20040;-42
2022/12/11 13:28:06;;;;;;;10.05;5.90;;;;;;;;;;4930064;28;20107;-42
2022/12/11 13:30:33;;;;;;;7.03;5.68;;;;;;;;;;4929013;29;20501;-41
2022/12/11 13:33:06;;;;;;;8.85;5.82;;;;;;;;;;4929770;29;20067;-44
2022/12/11 13:35:34;;;;;;;7.75;5.82;;;;;;;;;;4926610;29;20923;-43
2022/12/11 13:38:04;;;;;;;8.80;6.40;;;;;;;;;;4929957;28;20055;-43
2022/12/11 13:40:40;;;;;;;7.43;6.15;;;;;;;;;;4930693;29;20031;-41
2022/12/11 13:43:16;;;;;;;7.15;5.68;;;;;;;;;;4929133;28;20051;-43
2022/12/11 13:45:47;;;;;;;7.22;5.97;;;;;;;;;;4929150;29;20031;-44
2022/12/11 13:48:21;;;;;;;7.05;5.15;;;;;;;;;;4928486;28;20495;-41
2022/12/11 13:50:49;;;;;;;9.95;6.72;;;;;;;;;;4931248;29;20187;-42
2022/12/11 13:53:17;;;;;;;9.93;6.63;;;;;;;;;;4930453;29;20047;-43
2022/12/11 13:55:43;;;;;;;10.85;7.20;;;;;;;;;;4926393;29;20051;-41
2022/12/11 13:58:19;;;;;;;9.50;6.95;;;;;;;;;;4927090;28;20047;-45
2022/12/11 14:01:19;;;;;;;7.57;6.78;;;;;;;;;;4926601;29;20494;-41
2022/12/11 14:04:01;;;;;;;8.20;6.75;;;;;;;;;;4927233;28;20055;-41
2022/12/11 14:06:29;;;;;;;8.88;7.40;;;;;;;;;;4929505;29;20032;-41
2022/12/11 14:08:57;;;;;;;12.93;9.55;;;;;;;;;;4927523;28;20051;-42
2022/12/11 14:11:29;;;;;;;13.05;9.10;;;;;;;;;;4929768;29;20031;-43
2022/12/11 14:13:58;;;;;;;8.70;6.75;;;;;;;;;;4927654;28;20048;-41
2022/12/11 14:16:25;;;;;;;11.77;8.23;;;;;;;;;;4930597;29;20028;-46
2022/12/11 14:18:53;;;;;;;10.70;8.13;;;;;;;;;;4928753;28;20075;-43
2022/12/11 14:21:21;;;;;;;9.32;7.13;;;;;;;;;;4932895;29;20028;-42
2022/12/11 14:23:55;;;;;;;12.25;8.70;;;;;;;;;;4929816;28;20071;-42
2022/12/11 14:26:26;;;;;;;11.50;7.25;;;;;;;;;;4930480;29;20149;-43
2022/12/11 14:28:52;;;;;;;10.60;8.20;;;;;;;;;;4927068;28;20530;-42
2022/12/11 14:31:42;;;;;;;9.05;7.88;;;;;;;;;;4927952;29;20040;-42
2022/12/11 14:34:16;;;;;;;14.43;8.48;;;;;;;;;;4921674;28;20078;-43
2022/12/11 14:36:43;;;;;;;9.57;6.97;;;;;;;;;;4928050;29;20067;-42
2022/12/11 14:39:24;;;;;;;11.40;8.70;;;;;;;;;;4928754;28;20093;-49
2022/12/11 14:41:49;;;;;;;14.93;9.23;;;;;;;;;;4928088;29;20039;-41
2022/12/11 14:44:18;;;;;;;9.93;7.57;;;;;;;;;;4927000;28;20032;-45
2022/12/11 14:46:51;;;;;;;15.73;9.77;;;;;;;;;;4926713;29;20027;-44
2022/12/11 14:49:22;;;;;;;10.88;8.63;;;;;;;;;;4927641;28;20609;-42
2022/12/11 14:51:50;;;;;;;7.28;6.57;;;;;;;;;;4929252;29;20042;-44
2022/12/11 14:54:30;;;;;;;9.13;6.68;;;;;;;;;;4929719;28;20052;-44
2022/12/11 14:56:56;;;;;;;10.95;6.72;;;;;;;;;;4926930;29;20059;-42
2022/12/11 14:59:24;;;;;;;11.00;6.63;;;;;;;;;;4928468;28;20086;-42
2022/12/11 15:02:01;;;;;;;7.75;6.28;;;;;;;;;;4926924;29;20038;-48
2022/12/11 15:04:32;;;;;;;9.88;7.38;;;;;;;;;;4926354;28;20557;-44
2022/12/11 15:06:58;;;;;;;12.75;8.38;;;;;;;;;;4925631;29;20497;-45